sensor_id;sensor_type;location;lat;lon;timestamp;P1;durP1;ratioP1;P2;durP2;ratioP2
15913;SDS011;8055;51.930;8.840;2024-01-15T00:02:17;37.15;;;19.05;;
15913;SDS011;8055;51.930;8.840;2024-01-15T00:04:42;35.42;;;18.38;;
15913;SDS011;8055;51.930;8.840;2024-01-15T00:07:08;40.85;;;19.17;;
15913;SDS011;8055;51.930;8.840;2024-01-15T00:09:34;36.80;;;18.25;;
15913;SDS011;8055;51.930;8.840;2024-01-15T00:12:00;41.15;;;19.45;;
15913;SDS011;8055;51.930;8.840;2024-01-15T00:14:26;38.22;;;19.33;;
15913;SDS011;8055;51.930;8.840;2024-01-15T00:16:52;41.65;;;19.48;;
15913;SDS011;8055;51.930;8.840;2024-01-15T00:19:20;39.42;;;18.65;;
15913;SDS011;8055;51.930;8.840;2024-01-15T00:21:46;32.78;;;16.38;;
15913;SDS011;8055;51.930;8.840;2024-01-15T00:24:12;42.20;;;19.63;;
15913;SDS011;8055;51.930;8.840;2024-01-15T00:26:37;31.52;;;16.33;;
15913;SDS011;8055;51.930;8.840;2024-01-15T00:29:03;36.13;;;16.98;;
15913;SDS011;8055;51.930;8.840;2024-01-15T00:31:28;30.67;;;14.52;;
15913;SDS011;8055;51.930;8.840;2024-01-15T00:33:55;35.92;;;16.33;;
15913;SDS011;8055;51.930;8.840;2024-01-15T00:36:20;32.38;;;16.73;;
15913;SDS011;8055;51.930;8.840;2024-01-15T00:38:46;29.70;;;15.35;;
15913;SDS011;8055;51.930;8.840;2024-01-15T00:41:12;36.40;;;17.65;;
15913;SDS011;8055;51.930;8.840;2024-01-15T00:43:38;35.10;;;16.55;;
15913;SDS011;8055;51.930;8.840;2024-01-15T00:46:03;35.03;;;17.25;;
15913;SDS011;8055;51.930;8.840;2024-01-15T00:48:29;32.47;;;16.02;;
15913;SDS011;8055;51.930;8.840;2024-01-15T00:50:54;34.80;;;17.10;;
15913;SDS011;8055;51.930;8.840;2024-01-15T00:53:20;29.05;;;13.07;;
15913;SDS011;8055;51.930;8.840;2024-01-15T00:55:47;27.95;;;12.25;;
15913;SDS011;8055;51.930;8.840;2024-01-15T00:58:13;21.42;;;10.27;;
15913;SDS011;8055;51.930;8.840;2024-01-15T01:00:38;28.73;;;12.32;;
15913;SDS011;8055;51.930;8.840;2024-01-15T01:03:03;23.02;;;11.52;;
15913;SDS011;8055;51.930;8.840;2024-01-15T01:05:29;27.20;;;11.82;;
15913;SDS011;8055;51.930;8.840;2024-01-15T01:07:54;24.52;;;12.30;;
15913;SDS011;8055;51.930;8.840;2024-01-15T01:10:19;30.83;;;13.43;;
15913;SDS011;8055;51.930;8.840;2024-01-15T01:12:45;21.88;;;11.32;;
15913;SDS011;8055;51.930;8.840;2024-01-15T01:15:10;28.05;;;10.95;;
15913;SDS011;8055;51.930;8.840;2024-01-15T01:17:35;23.23;;;9.57;;
15913;SDS011;8055;51.930;8.840;2024-01-15T01:20:01;23.98;;;11.88;;
15913;SDS011;8055;51.930;8.840;2024-01-15T01:22:29;31.45;;;12.13;;
15913;SDS011;8055;51.930;8.840;2024-01-15T01:24:54;23.25;;;10.40;;
15913;SDS011;8055;51.930;8.840;2024-01-15T01:27:20;27.50;;;10.57;;
15913;SDS011;8055;51.930;8.840;2024-01-15T01:29:45;22.58;;;9.10;;
15913;SDS011;8055;51.930;8.840;2024-01-15T01:32:11;23.42;;;9.52;;
15913;SDS011;8055;51.930;8.840;2024-01-15T01:34:39;25.30;;;11.30;;
15913;SDS011;8055;51.930;8.840;2024-01-15T01:37:08;21.15;;;10.35;;
15913;SDS011;8055;51.930;8.840;2024-01-15T01:39:34;28.38;;;10.27;;
15913;SDS011;8055;51.930;8.840;2024-01-15T01:41:59;20.85;;;9.93;;
15913;SDS011;8055;51.930;8.840;2024-01-15T01:44:25;24.05;;;9.82;;
15913;SDS011;8055;51.930;8.840;2024-01-15T01:46:50;25.25;;;10.00;;
15913;SDS011;8055;51.930;8.840;2024-01-15T01:49:15;22.85;;;9.80;;
15913;SDS011;8055;51.930;8.840;2024-01-15T01:51:41;23.30;;;10.48;;
15913;SDS011;8055;51.930;8.840;2024-01-15T01:54:07;23.60;;;9.50;;
15913;SDS011;8055;51.930;8.840;2024-01-15T01:56:34;21.38;;;9.43;;
15913;SDS011;8055;51.930;8.840;2024-01-15T01:59:00;18.90;;;8.93;;
15913;SDS011;8055;51.930;8.840;2024-01-15T02:01:27;22.80;;;9.80;;
15913;SDS011;8055;51.930;8.840;2024-01-15T02:03:53;22.83;;;10.18;;
15913;SDS011;8055;51.930;8.840;2024-01-15T02:06:21;19.55;;;8.40;;
15913;SDS011;8055;51.930;8.840;2024-01-15T02:08:47;17.77;;;8.77;;
15913;SDS011;8055;51.930;8.840;2024-01-15T02:11:13;18.80;;;8.90;;
15913;SDS011;8055;51.930;8.840;2024-01-15T02:13:38;25.35;;;8.98;;
15913;SDS011;8055;51.930;8.840;2024-01-15T02:16:04;24.80;;;9.15;;
15913;SDS011;8055;51.930;8.840;2024-01-15T02:18:38;23.48;;;10.27;;
15913;SDS011;8055;51.930;8.840;2024-01-15T02:21:05;25.10;;;12.00;;
15913;SDS011;8055;51.930;8.840;2024-01-15T02:23:30;24.48;;;10.77;;
15913;SDS011;8055;51.930;8.840;2024-01-15T02:25:55;26.95;;;9.73;;
15913;SDS011;8055;51.930;8.840;2024-01-15T02:28:21;22.77;;;9.50;;
15913;SDS011;8055;51.930;8.840;2024-01-15T02:30:46;19.88;;;9.52;;
15913;SDS011;8055;51.930;8.840;2024-01-15T02:33:12;21.17;;;9.32;;
15913;SDS011;8055;51.930;8.840;2024-01-15T02:35:37;19.38;;;8.95;;
15913;SDS011;8055;51.930;8.840;2024-01-15T02:38:03;19.90;;;8.55;;
15913;SDS011;8055;51.930;8.840;2024-01-15T02:40:29;23.80;;;9.45;;
15913;SDS011;8055;51.930;8.840;2024-01-15T02:42:54;21.67;;;9.48;;
15913;SDS011;8055;51.930;8.840;2024-01-15T02:45:20;25.58;;;10.38;;
15913;SDS011;8055;51.930;8.840;2024-01-15T02:47:45;23.92;;;9.65;;
15913;SDS011;8055;51.930;8.840;2024-01-15T02:50:11;28.60;;;9.00;;
15913;SDS011;8055;51.930;8.840;2024-01-15T02:52:36;20.83;;;7.72;;
15913;SDS011;8055;51.930;8.840;2024-01-15T02:55:02;23.95;;;8.85;;
15913;SDS011;8055;51.930;8.840;2024-01-15T02:57:27;22.70;;;9.80;;
15913;SDS011;8055;51.930;8.840;2024-01-15T02:59:52;23.65;;;9.27;;
15913;SDS011;8055;51.930;8.840;2024-01-15T03:02:18;19.52;;;8.20;;
15913;SDS011;8055;51.930;8.840;2024-01-15T03:04:43;24.70;;;9.02;;
15913;SDS011;8055;51.930;8.840;2024-01-15T03:07:09;31.17;;;9.93;;
15913;SDS011;8055;51.930;8.840;2024-01-15T03:09:34;24.23;;;9.48;;
15913;SDS011;8055;51.930;8.840;2024-01-15T03:12:00;22.95;;;10.13;;
15913;SDS011;8055;51.930;8.840;2024-01-15T03:14:25;27.67;;;10.88;;
15913;SDS011;8055;51.930;8.840;2024-01-15T03:16:51;23.38;;;9.93;;
15913;SDS011;8055;51.930;8.840;2024-01-15T03:19:17;23.65;;;9.65;;
15913;SDS011;8055;51.930;8.840;2024-01-15T03:21:42;28.55;;;11.48;;
15913;SDS011;8055;51.930;8.840;2024-01-15T03:24:08;25.05;;;10.15;;
15913;SDS011;8055;51.930;8.840;2024-01-15T03:26:33;27.52;;;10.45;;
15913;SDS011;8055;51.930;8.840;2024-01-15T03:28:59;29.02;;;10.40;;
15913;SDS011;8055;51.930;8.840;2024-01-15T03:31:24;27.52;;;10.18;;
15913;SDS011;8055;51.930;8.840;2024-01-15T03:33:49;25.50;;;9.23;;
15913;SDS011;8055;51.930;8.840;2024-01-15T03:36:15;26.95;;;9.02;;
15913;SDS011;8055;51.930;8.840;2024-01-15T03:38:43;22.60;;;9.13;;
15913;SDS011;8055;51.930;8.840;2024-01-15T03:41:08;26.55;;;9.55;;
15913;SDS011;8055;51.930;8.840;2024-01-15T03:43:34;30.23;;;11.15;;
15913;SDS011;8055;51.930;8.840;2024-01-15T03:45:59;32.80;;;10.13;;
15913;SDS011;8055;51.930;8.840;2024-01-15T03:48:25;23.38;;;8.73;;
15913;SDS011;8055;51.930;8.840;2024-01-15T03:50:50;24.80;;;8.90;;
15913;SDS011;8055;51.930;8.840;2024-01-15T03:53:15;25.55;;;9.95;;
15913;SDS011;8055;51.930;8.840;2024-01-15T03:55:41;24.88;;;10.18;;
15913;SDS011;8055;51.930;8.840;2024-01-15T03:58:07;29.95;;;10.93;;
15913;SDS011;8055;51.930;8.840;2024-01-15T04:00:32;27.00;;;10.55;;
15913;SDS011;8055;51.930;8.840;2024-01-15T04:02:58;20.88;;;9.45;;
15913;SDS011;8055;51.930;8.840;2024-01-15T04:05:23;26.95;;;11.20;;
15913;SDS011;8055;51.930;8.840;2024-01-15T04:07:48;26.98;;;11.23;;
15913;SDS011;8055;51.930;8.840;2024-01-15T04:10:14;27.40;;;10.25;;
15913;SDS011;8055;51.930;8.840;2024-01-15T04:12:39;27.25;;;10.18;;
15913;SDS011;8055;51.930;8.840;2024-01-15T04:15:05;30.98;;;10.85;;
15913;SDS011;8055;51.930;8.840;2024-01-15T04:17:31;23.90;;;9.63;;
15913;SDS011;8055;51.930;8.840;2024-01-15T04:19:56;27.50;;;10.85;;
15913;SDS011;8055;51.930;8.840;2024-01-15T04:22:21;26.52;;;10.13;;
15913;SDS011;8055;51.930;8.840;2024-01-15T04:24:47;29.35;;;9.68;;
15913;SDS011;8055;51.930;8.840;2024-01-15T04:27:12;25.55;;;10.15;;
15913;SDS011;8055;51.930;8.840;2024-01-15T04:29:38;27.70;;;9.25;;
15913;SDS011;8055;51.930;8.840;2024-01-15T04:32:04;25.92;;;10.00;;
15913;SDS011;8055;51.930;8.840;2024-01-15T04:34:30;25.40;;;8.85;;
15913;SDS011;8055;51.930;8.840;2024-01-15T04:36:55;26.98;;;10.18;;
15913;SDS011;8055;51.930;8.840;2024-01-15T04:39:20;20.85;;;9.40;;
15913;SDS011;8055;51.930;8.840;2024-01-15T04:41:45;23.25;;;10.13;;
15913;SDS011;8055;51.930;8.840;2024-01-15T04:44:11;28.60;;;11.85;;
15913;SDS011;8055;51.930;8.840;2024-01-15T04:46:36;24.60;;;9.73;;
15913;SDS011;8055;51.930;8.840;2024-01-15T04:49:02;31.23;;;11.95;;
15913;SDS011;8055;51.930;8.840;2024-01-15T04:51:27;27.48;;;10.00;;
15913;SDS011;8055;51.930;8.840;2024-01-15T04:53:52;33.65;;;11.98;;
15913;SDS011;8055;51.930;8.840;2024-01-15T04:56:18;31.83;;;11.65;;
15913;SDS011;8055;51.930;8.840;2024-01-15T04:58:43;33.70;;;11.80;;
15913;SDS011;8055;51.930;8.840;2024-01-15T05:01:08;29.38;;;9.75;;
15913;SDS011;8055;51.930;8.840;2024-01-15T05:03:35;26.88;;;9.52;;
15913;SDS011;8055;51.930;8.840;2024-01-15T05:06:00;26.35;;;10.05;;
15913;SDS011;8055;51.930;8.840;2024-01-15T05:08:25;27.58;;;11.32;;
15913;SDS011;8055;51.930;8.840;2024-01-15T05:10:51;15.90;;;8.50;;
15913;SDS011;8055;51.930;8.840;2024-01-15T05:13:16;23.98;;;9.45;;
15913;SDS011;8055;51.930;8.840;2024-01-15T05:15:41;25.92;;;10.43;;
15913;SDS011;8055;51.930;8.840;2024-01-15T05:18:07;23.65;;;9.88;;
15913;SDS011;8055;51.930;8.840;2024-01-15T05:20:32;20.55;;;9.55;;
15913;SDS011;8055;51.930;8.840;2024-01-15T05:22:57;26.40;;;8.50;;
15913;SDS011;8055;51.930;8.840;2024-01-15T05:25:23;27.67;;;12.90;;
15913;SDS011;8055;51.930;8.840;2024-01-15T05:27:48;69.07;;;39.35;;
15913;SDS011;8055;51.930;8.840;2024-01-15T05:30:14;63.17;;;32.28;;
15913;SDS011;8055;51.930;8.840;2024-01-15T05:32:39;42.45;;;23.13;;
15913;SDS011;8055;51.930;8.840;2024-01-15T05:35:05;32.17;;;18.13;;
15913;SDS011;8055;51.930;8.840;2024-01-15T05:37:31;26.80;;;12.95;;
15913;SDS011;8055;51.930;8.840;2024-01-15T05:39:56;24.80;;;11.50;;
15913;SDS011;8055;51.930;8.840;2024-01-15T05:42:21;18.70;;;9.75;;
15913;SDS011;8055;51.930;8.840;2024-01-15T05:44:47;24.80;;;10.82;;
15913;SDS011;8055;51.930;8.840;2024-01-15T05:47:12;22.17;;;11.35;;
15913;SDS011;8055;51.930;8.840;2024-01-15T05:49:38;24.80;;;10.10;;
15913;SDS011;8055;51.930;8.840;2024-01-15T05:52:03;27.55;;;10.65;;
15913;SDS011;8055;51.930;8.840;2024-01-15T05:54:29;22.48;;;9.32;;
15913;SDS011;8055;51.930;8.840;2024-01-15T05:56:54;21.85;;;10.65;;
15913;SDS011;8055;51.930;8.840;2024-01-15T05:59:20;20.90;;;9.80;;
15913;SDS011;8055;51.930;8.840;2024-01-15T06:01:45;22.52;;;9.95;;
15913;SDS011;8055;51.930;8.840;2024-01-15T06:04:10;19.65;;;9.27;;
15913;SDS011;8055;51.930;8.840;2024-01-15T06:06:36;24.23;;;9.48;;
15913;SDS011;8055;51.930;8.840;2024-01-15T06:09:01;21.35;;;9.45;;
15913;SDS011;8055;51.930;8.840;2024-01-15T06:11:31;20.75;;;9.80;;
15913;SDS011;8055;51.930;8.840;2024-01-15T06:13:57;24.92;;;9.60;;
15913;SDS011;8055;51.930;8.840;2024-01-15T06:16:23;23.27;;;9.90;;
15913;SDS011;8055;51.930;8.840;2024-01-15T06:18:49;20.10;;;9.70;;
15913;SDS011;8055;51.930;8.840;2024-01-15T06:21:14;23.30;;;10.68;;
15913;SDS011;8055;51.930;8.840;2024-01-15T06:23:40;20.38;;;9.30;;
15913;SDS011;8055;51.930;8.840;2024-01-15T06:26:06;25.35;;;10.00;;
15913;SDS011;8055;51.930;8.840;2024-01-15T06:28:31;23.00;;;9.50;;
15913;SDS011;8055;51.930;8.840;2024-01-15T06:30:57;17.10;;;8.63;;
15913;SDS011;8055;51.930;8.840;2024-01-15T06:33:23;15.20;;;8.35;;
15913;SDS011;8055;51.930;8.840;2024-01-15T06:35:48;21.00;;;8.27;;
15913;SDS011;8055;51.930;8.840;2024-01-15T06:38:14;20.13;;;9.40;;
15913;SDS011;8055;51.930;8.840;2024-01-15T06:40:40;27.83;;;11.05;;
15913;SDS011;8055;51.930;8.840;2024-01-15T06:43:10;27.75;;;12.93;;
15913;SDS011;8055;51.930;8.840;2024-01-15T06:45:39;22.42;;;10.63;;
15913;SDS011;8055;51.930;8.840;2024-01-15T06:48:04;26.02;;;10.93;;
15913;SDS011;8055;51.930;8.840;2024-01-15T06:50:30;21.95;;;9.23;;
15913;SDS011;8055;51.930;8.840;2024-01-15T06:52:56;21.77;;;9.45;;
15913;SDS011;8055;51.930;8.840;2024-01-15T06:55:21;30.55;;;12.20;;
15913;SDS011;8055;51.930;8.840;2024-01-15T06:57:46;27.60;;;11.43;;
15913;SDS011;8055;51.930;8.840;2024-01-15T07:00:12;23.42;;;10.88;;
15913;SDS011;8055;51.930;8.840;2024-01-15T07:02:38;26.92;;;11.02;;
15913;SDS011;8055;51.930;8.840;2024-01-15T07:05:03;27.80;;;11.88;;
15913;SDS011;8055;51.930;8.840;2024-01-15T07:07:30;19.58;;;10.40;;
15913;SDS011;8055;51.930;8.840;2024-01-15T07:09:56;25.80;;;11.25;;
15913;SDS011;8055;51.930;8.840;2024-01-15T07:12:21;19.58;;;10.13;;
15913;SDS011;8055;51.930;8.840;2024-01-15T07:14:47;23.23;;;10.30;;
15913;SDS011;8055;51.930;8.840;2024-01-15T07:17:12;23.30;;;10.13;;
15913;SDS011;8055;51.930;8.840;2024-01-15T07:19:37;18.05;;;9.20;;
15913;SDS011;8055;51.930;8.840;2024-01-15T07:22:03;15.15;;;8.30;;
15913;SDS011;8055;51.930;8.840;2024-01-15T07:24:28;14.90;;;8.82;;
15913;SDS011;8055;51.930;8.840;2024-01-15T07:26:54;14.98;;;7.13;;
15913;SDS011;8055;51.930;8.840;2024-01-15T07:29:19;15.15;;;8.57;;
15913;SDS011;8055;51.930;8.840;2024-01-15T07:31:49;17.58;;;7.95;;
15913;SDS011;8055;51.930;8.840;2024-01-15T07:34:14;17.95;;;8.10;;
15913;SDS011;8055;51.930;8.840;2024-01-15T07:36:40;18.80;;;8.82;;
15913;SDS011;8055;51.930;8.840;2024-01-15T07:39:05;22.02;;;10.52;;
15913;SDS011;8055;51.930;8.840;2024-01-15T07:41:30;16.10;;;8.93;;
15913;SDS011;8055;51.930;8.840;2024-01-15T07:43:56;20.25;;;7.93;;
15913;SDS011;8055;51.930;8.840;2024-01-15T07:46:21;17.30;;;8.65;;
15913;SDS011;8055;51.930;8.840;2024-01-15T07:48:46;22.55;;;9.68;;
15913;SDS011;8055;51.930;8.840;2024-01-15T07:51:12;22.42;;;7.97;;
15913;SDS011;8055;51.930;8.840;2024-01-15T07:53:37;19.33;;;7.72;;
15913;SDS011;8055;51.930;8.840;2024-01-15T07:56:02;18.08;;;7.47;;
15913;SDS011;8055;51.930;8.840;2024-01-15T07:58:28;16.05;;;8.48;;
15913;SDS011;8055;51.930;8.840;2024-01-15T08:00:53;17.45;;;6.95;;
15913;SDS011;8055;51.930;8.840;2024-01-15T08:03:19;19.98;;;7.90;;
15913;SDS011;8055;51.930;8.840;2024-01-15T08:05:44;17.67;;;7.95;;
15913;SDS011;8055;51.930;8.840;2024-01-15T08:08:09;15.18;;;8.02;;
15913;SDS011;8055;51.930;8.840;2024-01-15T08:10:35;18.42;;;7.50;;
15913;SDS011;8055;51.930;8.840;2024-01-15T08:13:00;18.20;;;7.22;;
15913;SDS011;8055;51.930;8.840;2024-01-15T08:15:25;16.77;;;6.60;;
15913;SDS011;8055;51.930;8.840;2024-01-15T08:17:51;18.58;;;8.05;;
15913;SDS011;8055;51.930;8.840;2024-01-15T08:20:16;15.45;;;8.13;;
15913;SDS011;8055;51.930;8.840;2024-01-15T08:22:41;14.15;;;6.72;;
15913;SDS011;8055;51.930;8.840;2024-01-15T08:25:07;13.80;;;8.30;;
15913;SDS011;8055;51.930;8.840;2024-01-15T08:27:33;13.73;;;6.97;;
15913;SDS011;8055;51.930;8.840;2024-01-15T08:29:59;12.85;;;6.18;;
15913;SDS011;8055;51.930;8.840;2024-01-15T08:32:24;14.18;;;6.00;;
15913;SDS011;8055;51.930;8.840;2024-01-15T08:34:49;15.95;;;6.47;;
15913;SDS011;8055;51.930;8.840;2024-01-15T08:37:17;16.65;;;7.32;;
15913;SDS011;8055;51.930;8.840;2024-01-15T08:39:43;15.00;;;7.47;;
15913;SDS011;8055;51.930;8.840;2024-01-15T08:42:08;14.55;;;7.40;;
15913;SDS011;8055;51.930;8.840;2024-01-15T08:44:33;9.60;;;6.18;;
15913;SDS011;8055;51.930;8.840;2024-01-15T08:46:59;12.52;;;5.53;;
15913;SDS011;8055;51.930;8.840;2024-01-15T08:49:24;8.23;;;6.13;;
15913;SDS011;8055;51.930;8.840;2024-01-15T08:51:49;8.90;;;5.85;;
15913;SDS011;8055;51.930;8.840;2024-01-15T08:54:15;11.48;;;6.07;;
15913;SDS011;8055;51.930;8.840;2024-01-15T08:56:40;12.98;;;6.53;;
15913;SDS011;8055;51.930;8.840;2024-01-15T08:59:06;8.50;;;6.00;;
15913;SDS011;8055;51.930;8.840;2024-01-15T09:01:31;10.90;;;6.55;;
15913;SDS011;8055;51.930;8.840;2024-01-15T09:03:57;10.70;;;5.82;;
15913;SDS011;8055;51.930;8.840;2024-01-15T09:06:22;12.30;;;6.38;;
15913;SDS011;8055;51.930;8.840;2024-01-15T09:08:48;10.40;;;6.57;;
15913;SDS011;8055;51.930;8.840;2024-01-15T09:11:14;11.88;;;6.80;;
15913;SDS011;8055;51.930;8.840;2024-01-15T09:13:39;10.93;;;6.40;;
15913;SDS011;8055;51.930;8.840;2024-01-15T09:16:05;10.63;;;6.35;;
15913;SDS011;8055;51.930;8.840;2024-01-15T09:18:30;10.73;;;5.88;;
15913;SDS011;8055;51.930;8.840;2024-01-15T09:20:56;8.52;;;6.05;;
15913;SDS011;8055;51.930;8.840;2024-01-15T09:23:22;8.45;;;5.38;;
15913;SDS011;8055;51.930;8.840;2024-01-15T09:25:47;9.63;;;5.60;;
15913;SDS011;8055;51.930;8.840;2024-01-15T09:28:13;10.70;;;6.30;;
15913;SDS011;8055;51.930;8.840;2024-01-15T09:30:39;10.32;;;5.45;;
15913;SDS011;8055;51.930;8.840;2024-01-15T09:33:04;11.05;;;6.47;;
15913;SDS011;8055;51.930;8.840;2024-01-15T09:35:30;10.45;;;5.85;;
15913;SDS011;8055;51.930;8.840;2024-01-15T09:37:55;11.80;;;6.40;;
15913;SDS011;8055;51.930;8.840;2024-01-15T09:40:20;12.07;;;6.35;;
15913;SDS011;8055;51.930;8.840;2024-01-15T09:42:46;11.13;;;6.53;;
15913;SDS011;8055;51.930;8.840;2024-01-15T09:45:12;10.00;;;7.00;;
15913;SDS011;8055;51.930;8.840;2024-01-15T09:47:38;10.98;;;6.57;;
15913;SDS011;8055;51.930;8.840;2024-01-15T09:50:05;11.60;;;6.95;;
15913;SDS011;8055;51.930;8.840;2024-01-15T09:52:31;17.98;;;8.15;;
15913;SDS011;8055;51.930;8.840;2024-01-15T09:54:58;12.80;;;7.00;;
15913;SDS011;8055;51.930;8.840;2024-01-15T09:57:25;12.90;;;7.30;;
15913;SDS011;8055;51.930;8.840;2024-01-15T09:59:51;13.95;;;6.82;;
15913;SDS011;8055;51.930;8.840;2024-01-15T10:02:18;12.63;;;7.50;;
15913;SDS011;8055;51.930;8.840;2024-01-15T10:04:44;12.23;;;6.15;;
15913;SDS011;8055;51.930;8.840;2024-01-15T10:07:09;21.92;;;7.30;;
15913;SDS011;8055;51.930;8.840;2024-01-15T10:09:42;16.35;;;7.00;;
15913;SDS011;8055;51.930;8.840;2024-01-15T10:12:07;17.30;;;7.70;;
15913;SDS011;8055;51.930;8.840;2024-01-15T10:14:35;22.45;;;7.50;;
15913;SDS011;8055;51.930;8.840;2024-01-15T10:17:00;13.50;;;6.72;;
15913;SDS011;8055;51.930;8.840;2024-01-15T10:19:25;10.45;;;6.82;;
15913;SDS011;8055;51.930;8.840;2024-01-15T10:21:51;11.23;;;5.85;;
15913;SDS011;8055;51.930;8.840;2024-01-15T10:24:16;15.20;;;6.07;;
15913;SDS011;8055;51.930;8.840;2024-01-15T10:26:42;15.10;;;5.90;;
15913;SDS011;8055;51.930;8.840;2024-01-15T10:29:07;15.45;;;6.07;;
15913;SDS011;8055;51.930;8.840;2024-01-15T10:31:32;14.13;;;5.90;;
15913;SDS011;8055;51.930;8.840;2024-01-15T10:34:11;10.38;;;5.90;;
15913;SDS011;8055;51.930;8.840;2024-01-15T10:36:41;14.02;;;6.72;;
15913;SDS011;8055;51.930;8.840;2024-01-15T10:39:06;9.27;;;5.45;;
15913;SDS011;8055;51.930;8.840;2024-01-15T10:41:32;10.05;;;5.43;;
15913;SDS011;8055;51.930;8.840;2024-01-15T10:43:58;11.80;;;5.88;;
15913;SDS011;8055;51.930;8.840;2024-01-15T10:46:24;14.48;;;6.00;;
15913;SDS011;8055;51.930;8.840;2024-01-15T10:48:50;14.15;;;5.63;;
15913;SDS011;8055;51.930;8.840;2024-01-15T10:51:16;11.25;;;5.50;;
15913;SDS011;8055;51.930;8.840;2024-01-15T10:53:42;11.02;;;5.38;;
15913;SDS011;8055;51.930;8.840;2024-01-15T10:56:09;10.70;;;4.57;;
15913;SDS011;8055;51.930;8.840;2024-01-15T10:58:35;10.93;;;4.70;;
15913;SDS011;8055;51.930;8.840;2024-01-15T11:01:02;11.63;;;5.60;;
15913;SDS011;8055;51.930;8.840;2024-01-15T11:03:29;17.73;;;5.45;;
15913;SDS011;8055;51.930;8.840;2024-01-15T11:05:55;13.88;;;5.65;;
15913;SDS011;8055;51.930;8.840;2024-01-15T11:08:20;12.20;;;5.00;;
15913;SDS011;8055;51.930;8.840;2024-01-15T11:10:53;10.02;;;5.63;;
15913;SDS011;8055;51.930;8.840;2024-01-15T11:13:39;12.23;;;5.15;;
15913;SDS011;8055;51.930;8.840;2024-01-15T11:16:06;17.77;;;4.57;;
15913;SDS011;8055;51.930;8.840;2024-01-15T11:21:19;18.52;;;5.28;;
15913;SDS011;8055;51.930;8.840;2024-01-15T11:23:45;9.68;;;4.28;;
15913;SDS011;8055;51.930;8.840;2024-01-15T11:29:03;11.13;;;4.60;;
15913;SDS011;8055;51.930;8.840;2024-01-15T11:34:08;11.47;;;4.50;;
15913;SDS011;8055;51.930;8.840;2024-01-15T11:37:19;12.90;;;4.10;;
15913;SDS011;8055;51.930;8.840;2024-01-15T11:39:40;12.93;;;4.72;;
15913;SDS011;8055;51.930;8.840;2024-01-15T11:42:08;12.32;;;5.32;;
15913;SDS011;8055;51.930;8.840;2024-01-15T11:44:35;12.98;;;4.82;;
15913;SDS011;8055;51.930;8.840;2024-01-15T11:52:22;12.77;;;4.18;;
15913;SDS011;8055;51.930;8.840;2024-01-15T12:00:19;9.98;;;4.90;;
15913;SDS011;8055;51.930;8.840;2024-01-15T12:02:46;11.95;;;4.40;;
15913;SDS011;8055;51.930;8.840;2024-01-15T12:05:13;11.55;;;4.32;;
15913;SDS011;8055;51.930;8.840;2024-01-15T12:07:40;9.60;;;3.78;;
15913;SDS011;8055;51.930;8.840;2024-01-15T12:10:13;10.65;;;4.47;;
15913;SDS011;8055;51.930;8.840;2024-01-15T12:12:43;13.63;;;4.65;;
15913;SDS011;8055;51.930;8.840;2024-01-15T12:15:30;10.60;;;4.85;;
15913;SDS011;8055;51.930;8.840;2024-01-15T12:17:58;12.65;;;4.13;;
15913;SDS011;8055;51.930;8.840;2024-01-15T12:20:28;11.95;;;4.38;;
15913;SDS011;8055;51.930;8.840;2024-01-15T12:22:54;11.75;;;4.82;;
15913;SDS011;8055;51.930;8.840;2024-01-15T12:25:24;11.30;;;4.35;;
15913;SDS011;8055;51.930;8.840;2024-01-15T12:27:52;11.10;;;5.22;;
15913;SDS011;8055;51.930;8.840;2024-01-15T12:30:17;9.40;;;4.45;;
15913;SDS011;8055;51.930;8.840;2024-01-15T12:32:43;9.75;;;4.60;;
15913;SDS011;8055;51.930;8.840;2024-01-15T12:35:12;10.20;;;3.70;;
15913;SDS011;8055;51.930;8.840;2024-01-15T12:37:39;10.27;;;4.38;;
15913;SDS011;8055;51.930;8.840;2024-01-15T12:40:05;7.75;;;3.40;;
15913;SDS011;8055;51.930;8.840;2024-01-15T12:42:41;8.80;;;3.70;;
15913;SDS011;8055;51.930;8.840;2024-01-15T12:45:07;10.45;;;3.45;;
15913;SDS011;8055;51.930;8.840;2024-01-15T12:47:34;10.00;;;3.72;;
15913;SDS011;8055;51.930;8.840;2024-01-15T12:49:59;12.27;;;4.00;;
15913;SDS011;8055;51.930;8.840;2024-01-15T12:52:28;11.07;;;3.63;;
15913;SDS011;8055;51.930;8.840;2024-01-15T12:54:54;8.27;;;3.08;;
15913;SDS011;8055;51.930;8.840;2024-01-15T12:57:19;13.90;;;4.53;;
15913;SDS011;8055;51.930;8.840;2024-01-15T12:59:45;7.45;;;3.20;;
15913;SDS011;8055;51.930;8.840;2024-01-15T13:02:11;7.47;;;3.65;;
15913;SDS011;8055;51.930;8.840;2024-01-15T13:04:38;9.63;;;3.53;;
15913;SDS011;8055;51.930;8.840;2024-01-15T13:07:04;6.18;;;3.30;;
15913;SDS011;8055;51.930;8.840;2024-01-15T13:09:31;10.98;;;3.13;;
15913;SDS011;8055;51.930;8.840;2024-01-15T13:11:56;11.25;;;3.65;;
15913;SDS011;8055;51.930;8.840;2024-01-15T13:14:22;11.23;;;3.72;;
15913;SDS011;8055;51.930;8.840;2024-01-15T13:16:47;13.68;;;3.60;;
15913;SDS011;8055;51.930;8.840;2024-01-15T13:19:13;13.65;;;3.10;;
15913;SDS011;8055;51.930;8.840;2024-01-15T13:21:40;9.88;;;3.78;;
15913;SDS011;8055;51.930;8.840;2024-01-15T13:24:05;11.07;;;3.25;;
15913;SDS011;8055;51.930;8.840;2024-01-15T13:26:32;9.32;;;3.33;;
15913;SDS011;8055;51.930;8.840;2024-01-15T13:28:58;8.77;;;4.05;;
15913;SDS011;8055;51.930;8.840;2024-01-15T13:31:24;7.13;;;3.97;;
15913;SDS011;8055;51.930;8.840;2024-01-15T13:33:50;9.13;;;3.08;;
15913;SDS011;8055;51.930;8.840;2024-01-15T13:36:15;13.18;;;4.18;;
15913;SDS011;8055;51.930;8.840;2024-01-15T13:38:41;8.57;;;2.40;;
15913;SDS011;8055;51.930;8.840;2024-01-15T13:41:06;8.00;;;2.67;;
15913;SDS011;8055;51.930;8.840;2024-01-15T13:43:32;11.10;;;3.08;;
15913;SDS011;8055;51.930;8.840;2024-01-15T13:45:58;7.78;;;3.13;;
15913;SDS011;8055;51.930;8.840;2024-01-15T13:48:24;10.77;;;3.13;;
15913;SDS011;8055;51.930;8.840;2024-01-15T13:50:49;8.05;;;2.75;;
15913;SDS011;8055;51.930;8.840;2024-01-15T13:53:15;4.68;;;2.45;;
15913;SDS011;8055;51.930;8.840;2024-01-15T13:55:41;17.83;;;3.83;;
15913;SDS011;8055;51.930;8.840;2024-01-15T13:58:06;11.75;;;5.10;;
15913;SDS011;8055;51.930;8.840;2024-01-15T14:00:32;10.40;;;4.53;;
15913;SDS011;8055;51.930;8.840;2024-01-15T14:02:57;12.05;;;3.83;;
15913;SDS011;8055;51.930;8.840;2024-01-15T14:05:23;6.65;;;3.97;;
15913;SDS011;8055;51.930;8.840;2024-01-15T14:07:48;9.90;;;3.80;;
15913;SDS011;8055;51.930;8.840;2024-01-15T14:10:14;11.43;;;4.03;;
15913;SDS011;8055;51.930;8.840;2024-01-15T14:12:39;12.57;;;4.18;;
15913;SDS011;8055;51.930;8.840;2024-01-15T14:15:05;4.55;;;2.90;;
15913;SDS011;8055;51.930;8.840;2024-01-15T14:17:31;7.75;;;3.65;;
15913;SDS011;8055;51.930;8.840;2024-01-15T14:19:56;13.73;;;4.75;;
15913;SDS011;8055;51.930;8.840;2024-01-15T14:22:22;10.98;;;4.40;;
15913;SDS011;8055;51.930;8.840;2024-01-15T14:24:48;8.70;;;4.03;;
15913;SDS011;8055;51.930;8.840;2024-01-15T14:27:14;10.55;;;3.58;;
15913;SDS011;8055;51.930;8.840;2024-01-15T14:29:40;11.70;;;3.38;;
15913;SDS011;8055;51.930;8.840;2024-01-15T14:32:05;6.13;;;3.05;;
15913;SDS011;8055;51.930;8.840;2024-01-15T14:34:31;10.60;;;3.42;;
15913;SDS011;8055;51.930;8.840;2024-01-15T14:36:56;7.07;;;3.70;;
15913;SDS011;8055;51.930;8.840;2024-01-15T14:39:22;5.68;;;2.97;;
15913;SDS011;8055;51.930;8.840;2024-01-15T14:41:48;5.82;;;2.80;;
15913;SDS011;8055;51.930;8.840;2024-01-15T14:44:13;5.88;;;3.17;;
15913;SDS011;8055;51.930;8.840;2024-01-15T14:46:39;14.95;;;4.10;;
15913;SDS011;8055;51.930;8.840;2024-01-15T14:49:05;11.68;;;4.88;;
15913;SDS011;8055;51.930;8.840;2024-01-15T14:51:31;5.00;;;3.22;;
15913;SDS011;8055;51.930;8.840;2024-01-15T14:53:57;6.55;;;3.25;;
15913;SDS011;8055;51.930;8.840;2024-01-15T14:56:22;9.00;;;3.60;;
15913;SDS011;8055;51.930;8.840;2024-01-15T14:58:48;8.75;;;3.45;;